sensor_id;sensor_type;location;lat;lon;timestamp;P1;durP1;ratioP1;P2;durP2;ratioP2
40170;SDS011;37650;52.790;18.268;2023-05-10T00:00:35;9.40;;;6.10;;
40170;SDS011;37650;52.790;18.268;2023-05-10T00:03:56;8.10;;;5.90;;
40170;SDS011;37650;52.790;18.268;2023-05-10T00:07:17;10.00;;;6.60;;
40170;SDS011;37650;52.790;18.268;2023-05-10T00:10:38;14.80;;;6.70;;
40170;SDS011;37650;52.790;18.268;2023-05-10T00:13:59;10.50;;;6.00;;
40170;SDS011;37650;52.790;18.268;2023-05-10T00:17:20;9.30;;;5.90;;
40170;SDS011;37650;52.790;18.268;2023-05-10T00:20:41;10.90;;;5.30;;
40170;SDS011;37650;52.790;18.268;2023-05-10T00:24:03;14.30;;;7.70;;
40170;SDS011;37650;52.790;18.268;2023-05-10T00:27:25;11.40;;;6.70;;
40170;SDS011;37650;52.790;18.268;2023-05-10T00:30:46;8.70;;;5.00;;
40170;SDS011;37650;52.790;18.268;2023-05-10T00:34:07;8.20;;;5.10;;
40170;SDS011;37650;52.790;18.268;2023-05-10T00:37:28;9.30;;;4.90;;
40170;SDS011;37650;52.790;18.268;2023-05-10T00:40:49;10.40;;;5.50;;
40170;SDS011;37650;52.790;18.268;2023-05-10T00:44:17;9.40;;;4.70;;
40170;SDS011;37650;52.790;18.268;2023-05-10T00:47:39;6.30;;;4.20;;
40170;SDS011;37650;52.790;18.268;2023-05-10T00:51:01;8.60;;;5.20;;
40170;SDS011;37650;52.790;18.268;2023-05-10T00:54:22;7.50;;;5.10;;
40170;SDS011;37650;52.790;18.268;2023-05-10T00:57:45;9.60;;;4.70;;
40170;SDS011;37650;52.790;18.268;2023-05-10T01:01:07;12.40;;;6.10;;
40170;SDS011;37650;52.790;18.268;2023-05-10T01:04:29;7.70;;;4.90;;
40170;SDS011;37650;52.790;18.268;2023-05-10T01:07:51;9.30;;;5.50;;
40170;SDS011;37650;52.790;18.268;2023-05-10T01:11:12;10.20;;;5.80;;
40170;SDS011;37650;52.790;18.268;2023-05-10T01:14:33;9.70;;;5.70;;
40170;SDS011;37650;52.790;18.268;2023-05-10T01:17:57;11.00;;;5.30;;
40170;SDS011;37650;52.790;18.268;2023-05-10T01:25:37;15.50;;;10.30;;
40170;SDS011;37650;52.790;18.268;2023-05-10T01:29:39;10.30;;;5.90;;
40170;SDS011;37650;52.790;18.268;2023-05-10T01:40:00;7.30;;;5.20;;
40170;SDS011;37650;52.790;18.268;2023-05-10T01:43:30;10.30;;;6.10;;
40170;SDS011;37650;52.790;18.268;2023-05-10T01:47:00;6.80;;;5.50;;
40170;SDS011;37650;52.790;18.268;2023-05-10T01:50:27;9.50;;;5.30;;
40170;SDS011;37650;52.790;18.268;2023-05-10T01:53:56;9.40;;;5.30;;
40170;SDS011;37650;52.790;18.268;2023-05-10T01:57:22;10.40;;;5.90;;
40170;SDS011;37650;52.790;18.268;2023-05-10T02:00:47;9.50;;;5.60;;
40170;SDS011;37650;52.790;18.268;2023-05-10T02:04:10;8.80;;;5.80;;
40170;SDS011;37650;52.790;18.268;2023-05-10T02:07:36;8.00;;;5.50;;
40170;SDS011;37650;52.790;18.268;2023-05-10T02:10:58;11.40;;;5.80;;
40170;SDS011;37650;52.790;18.268;2023-05-10T02:14:20;9.30;;;6.50;;
40170;SDS011;37650;52.790;18.268;2023-05-10T02:17:44;10.30;;;5.30;;
40170;SDS011;37650;52.790;18.268;2023-05-10T02:21:08;8.30;;;5.30;;
40170;SDS011;37650;52.790;18.268;2023-05-10T02:24:33;9.70;;;5.90;;
40170;SDS011;37650;52.790;18.268;2023-05-10T02:27:56;12.70;;;6.80;;
40170;SDS011;37650;52.790;18.268;2023-05-10T02:31:18;10.50;;;5.50;;
40170;SDS011;37650;52.790;18.268;2023-05-10T02:34:41;8.40;;;5.30;;
40170;SDS011;37650;52.790;18.268;2023-05-10T02:38:03;13.10;;;5.90;;
40170;SDS011;37650;52.790;18.268;2023-05-10T02:41:26;14.70;;;5.70;;
40170;SDS011;37650;52.790;18.268;2023-05-10T02:44:52;9.60;;;5.50;;
40170;SDS011;37650;52.790;18.268;2023-05-10T02:48:17;8.50;;;5.20;;
40170;SDS011;37650;52.790;18.268;2023-05-10T02:51:40;9.40;;;5.60;;
40170;SDS011;37650;52.790;18.268;2023-05-10T02:55:05;8.50;;;5.70;;
40170;SDS011;37650;52.790;18.268;2023-05-10T02:58:30;9.50;;;5.50;;
40170;SDS011;37650;52.790;18.268;2023-05-10T03:01:51;9.90;;;5.10;;
40170;SDS011;37650;52.790;18.268;2023-05-10T03:05:13;9.60;;;5.50;;
40170;SDS011;37650;52.790;18.268;2023-05-10T03:08:34;8.80;;;5.20;;
40170;SDS011;37650;52.790;18.268;2023-05-10T03:12:12;7.50;;;5.70;;
40170;SDS011;37650;52.790;18.268;2023-05-10T03:19:30;11.20;;;6.20;;
40170;SDS011;37650;52.790;18.268;2023-05-10T03:23:09;10.60;;;5.40;;
40170;SDS011;37650;52.790;18.268;2023-05-10T03:26:34;8.00;;;5.20;;
40170;SDS011;37650;52.790;18.268;2023-05-10T03:30:12;10.20;;;5.60;;
40170;SDS011;37650;52.790;18.268;2023-05-10T03:33:34;9.10;;;5.70;;
40170;SDS011;37650;52.790;18.268;2023-05-10T03:36:55;12.70;;;7.90;;
40170;SDS011;37650;52.790;18.268;2023-05-10T03:43:38;13.50;;;7.50;;
40170;SDS011;37650;52.790;18.268;2023-05-10T03:46:59;10.00;;;6.10;;
40170;SDS011;37650;52.790;18.268;2023-05-10T03:50:21;11.30;;;5.60;;
40170;SDS011;37650;52.790;18.268;2023-05-10T03:53:42;9.10;;;6.00;;
40170;SDS011;37650;52.790;18.268;2023-05-10T03:57:03;10.70;;;6.20;;
40170;SDS011;37650;52.790;18.268;2023-05-10T04:00:25;13.90;;;6.60;;
40170;SDS011;37650;52.790;18.268;2023-05-10T04:07:08;11.90;;;5.60;;
40170;SDS011;37650;52.790;18.268;2023-05-10T04:10:30;13.60;;;6.10;;
40170;SDS011;37650;52.790;18.268;2023-05-10T04:13:52;13.70;;;7.50;;
40170;SDS011;37650;52.790;18.268;2023-05-10T04:17:14;9.90;;;6.10;;
40170;SDS011;37650;52.790;18.268;2023-05-10T04:20:35;8.90;;;5.60;;
40170;SDS011;37650;52.790;18.268;2023-05-10T04:23:56;9.70;;;5.70;;
40170;SDS011;37650;52.790;18.268;2023-05-10T04:27:17;9.00;;;5.30;;
40170;SDS011;37650;52.790;18.268;2023-05-10T04:30:39;12.10;;;6.20;;
40170;SDS011;37650;52.790;18.268;2023-05-10T04:34:00;14.10;;;7.30;;
40170;SDS011;37650;52.790;18.268;2023-05-10T04:37:22;9.20;;;6.00;;
40170;SDS011;37650;52.790;18.268;2023-05-10T04:40:43;8.40;;;5.80;;
40170;SDS011;37650;52.790;18.268;2023-05-10T04:44:05;11.20;;;7.10;;
40170;SDS011;37650;52.790;18.268;2023-05-10T04:47:26;9.80;;;6.00;;
40170;SDS011;37650;52.790;18.268;2023-05-10T04:50:47;8.60;;;4.90;;
40170;SDS011;37650;52.790;18.268;2023-05-10T04:54:09;8.20;;;5.00;;
40170;SDS011;37650;52.790;18.268;2023-05-10T04:57:30;9.80;;;5.20;;
40170;SDS011;37650;52.790;18.268;2023-05-10T05:00:52;8.20;;;5.00;;
40170;SDS011;37650;52.790;18.268;2023-05-10T05:04:13;6.60;;;4.30;;
40170;SDS011;37650;52.790;18.268;2023-05-10T05:07:35;9.80;;;5.40;;
40170;SDS011;37650;52.790;18.268;2023-05-10T05:10:56;7.70;;;4.40;;
40170;SDS011;37650;52.790;18.268;2023-05-10T05:14:17;8.80;;;5.50;;
40170;SDS011;37650;52.790;18.268;2023-05-10T05:17:38;6.50;;;4.30;;
40170;SDS011;37650;52.790;18.268;2023-05-10T05:21:00;9.50;;;4.20;;
40170;SDS011;37650;52.790;18.268;2023-05-10T05:24:21;7.10;;;4.70;;
40170;SDS011;37650;52.790;18.268;2023-05-10T05:27:43;6.60;;;4.40;;
40170;SDS011;37650;52.790;18.268;2023-05-10T05:31:05;9.00;;;4.50;;
40170;SDS011;37650;52.790;18.268;2023-05-10T05:34:28;9.00;;;4.50;;
40170;SDS011;37650;52.790;18.268;2023-05-10T05:37:49;9.60;;;5.30;;
40170;SDS011;37650;52.790;18.268;2023-05-10T05:41:11;9.90;;;5.00;;
40170;SDS011;37650;52.790;18.268;2023-05-10T05:44:32;7.40;;;5.00;;
40170;SDS011;37650;52.790;18.268;2023-05-10T05:47:53;6.30;;;4.70;;
40170;SDS011;37650;52.790;18.268;2023-05-10T05:51:15;9.50;;;5.40;;
40170;SDS011;37650;52.790;18.268;2023-05-10T05:54:36;7.00;;;4.00;;
40170;SDS011;37650;52.790;18.268;2023-05-10T05:57:58;15.70;;;8.00;;
40170;SDS011;37650;52.790;18.268;2023-05-10T06:01:19;23.30;;;11.50;;
40170;SDS011;37650;52.790;18.268;2023-05-10T06:04:40;16.70;;;10.00;;
40170;SDS011;37650;52.790;18.268;2023-05-10T06:08:05;22.00;;;12.60;;
40170;SDS011;37650;52.790;18.268;2023-05-10T06:11:26;13.90;;;8.50;;
40170;SDS011;37650;52.790;18.268;2023-05-10T06:14:47;12.40;;;7.70;;
40170;SDS011;37650;52.790;18.268;2023-05-10T06:18:08;14.70;;;9.00;;
40170;SDS011;37650;52.790;18.268;2023-05-10T06:21:29;12.70;;;7.30;;
40170;SDS011;37650;52.790;18.268;2023-05-10T06:24:50;11.20;;;6.30;;
40170;SDS011;37650;52.790;18.268;2023-05-10T06:28:12;8.30;;;5.80;;
40170;SDS011;37650;52.790;18.268;2023-05-10T06:31:33;6.90;;;5.00;;
40170;SDS011;37650;52.790;18.268;2023-05-10T06:34:55;9.30;;;5.20;;
40170;SDS011;37650;52.790;18.268;2023-05-10T06:38:16;10.50;;;6.10;;
40170;SDS011;37650;52.790;18.268;2023-05-10T06:41:38;11.50;;;8.60;;
40170;SDS011;37650;52.790;18.268;2023-05-10T06:44:59;8.40;;;5.50;;
40170;SDS011;37650;52.790;18.268;2023-05-10T06:48:20;14.60;;;7.50;;
40170;SDS011;37650;52.790;18.268;2023-05-10T06:51:42;7.80;;;5.10;;
40170;SDS011;37650;52.790;18.268;2023-05-10T06:55:03;9.40;;;6.70;;
40170;SDS011;37650;52.790;18.268;2023-05-10T06:58:25;7.50;;;5.30;;
40170;SDS011;37650;52.790;18.268;2023-05-10T07:01:46;10.50;;;8.20;;
40170;SDS011;37650;52.790;18.268;2023-05-10T07:05:08;13.70;;;7.40;;
40170;SDS011;37650;52.790;18.268;2023-05-10T07:08:30;12.60;;;7.40;;
40170;SDS011;37650;52.790;18.268;2023-05-10T07:11:52;10.50;;;7.00;;
40170;SDS011;37650;52.790;18.268;2023-05-10T07:15:13;11.10;;;4.90;;
40170;SDS011;37650;52.790;18.268;2023-05-10T07:18:36;8.70;;;3.80;;
40170;SDS011;37650;52.790;18.268;2023-05-10T07:21:57;7.90;;;3.70;;
40170;SDS011;37650;52.790;18.268;2023-05-10T07:25:18;8.30;;;4.00;;
40170;SDS011;37650;52.790;18.268;2023-05-10T07:28:40;6.70;;;3.40;;
40170;SDS011;37650;52.790;18.268;2023-05-10T07:32:00;4.80;;;2.70;;
40170;SDS011;37650;52.790;18.268;2023-05-10T07:35:22;5.90;;;2.70;;
40170;SDS011;37650;52.790;18.268;2023-05-10T07:38:43;4.30;;;2.80;;
40170;SDS011;37650;52.790;18.268;2023-05-10T07:42:04;5.80;;;2.80;;
40170;SDS011;37650;52.790;18.268;2023-05-10T07:48:47;4.80;;;2.40;;
40170;SDS011;37650;52.790;18.268;2023-05-10T07:52:08;4.20;;;2.30;;
40170;SDS011;37650;52.790;18.268;2023-05-10T07:55:29;5.00;;;2.60;;
40170;SDS011;37650;52.790;18.268;2023-05-10T07:58:51;4.60;;;2.60;;
40170;SDS011;37650;52.790;18.268;2023-05-10T08:02:12;3.90;;;2.00;;
40170;SDS011;37650;52.790;18.268;2023-05-10T08:05:34;4.80;;;2.70;;
40170;SDS011;37650;52.790;18.268;2023-05-10T08:08:55;5.50;;;2.10;;
40170;SDS011;37650;52.790;18.268;2023-05-10T08:12:17;4.30;;;2.10;;
40170;SDS011;37650;52.790;18.268;2023-05-10T08:15:37;3.90;;;2.20;;
40170;SDS011;37650;52.790;18.268;2023-05-10T08:18:58;4.50;;;2.40;;
40170;SDS011;37650;52.790;18.268;2023-05-10T08:22:19;6.30;;;2.60;;
40170;SDS011;37650;52.790;18.268;2023-05-10T08:25:41;3.20;;;2.20;;
40170;SDS011;37650;52.790;18.268;2023-05-10T08:29:02;5.00;;;2.40;;
40170;SDS011;37650;52.790;18.268;2023-05-10T08:32:23;5.00;;;2.10;;
40170;SDS011;37650;52.790;18.268;2023-05-10T08:35:43;4.70;;;2.50;;
40170;SDS011;37650;52.790;18.268;2023-05-10T08:39:06;5.80;;;2.10;;
40170;SDS011;37650;52.790;18.268;2023-05-10T08:42:28;6.90;;;2.80;;
40170;SDS011;37650;52.790;18.268;2023-05-10T08:45:51;5.70;;;2.90;;
40170;SDS011;37650;52.790;18.268;2023-05-10T08:49:16;6.20;;;2.90;;
40170;SDS011;37650;52.790;18.268;2023-05-10T08:52:39;3.60;;;2.80;;
40170;SDS011;37650;52.790;18.268;2023-05-10T08:56:02;5.90;;;2.40;;
40170;SDS011;37650;52.790;18.268;2023-05-10T08:59:23;5.30;;;2.20;;
40170;SDS011;37650;52.790;18.268;2023-05-10T09:02:44;4.10;;;2.30;;
40170;SDS011;37650;52.790;18.268;2023-05-10T09:06:08;5.50;;;1.90;;
40170;SDS011;37650;52.790;18.268;2023-05-10T09:09:29;6.60;;;3.40;;
40170;SDS011;37650;52.790;18.268;2023-05-10T09:12:51;8.80;;;3.30;;
40170;SDS011;37650;52.790;18.268;2023-05-10T09:16:14;6.40;;;2.50;;
40170;SDS011;37650;52.790;18.268;2023-05-10T09:19:36;7.20;;;3.10;;
40170;SDS011;37650;52.790;18.268;2023-05-10T09:22:58;5.60;;;3.10;;
40170;SDS011;37650;52.790;18.268;2023-05-10T09:26:21;4.90;;;2.60;;
40170;SDS011;37650;52.790;18.268;2023-05-10T09:29:44;5.90;;;2.60;;
40170;SDS011;37650;52.790;18.268;2023-05-10T09:33:05;8.40;;;3.30;;
40170;SDS011;37650;52.790;18.268;2023-05-10T09:36:26;10.80;;;2.90;;
40170;SDS011;37650;52.790;18.268;2023-05-10T09:39:48;5.20;;;2.00;;
40170;SDS011;37650;52.790;18.268;2023-05-10T09:43:15;4.80;;;2.50;;
40170;SDS011;37650;52.790;18.268;2023-05-10T09:46:36;6.30;;;2.50;;
40170;SDS011;37650;52.790;18.268;2023-05-10T09:49:57;5.40;;;2.10;;
40170;SDS011;37650;52.790;18.268;2023-05-10T09:53:23;6.60;;;2.00;;
40170;SDS011;37650;52.790;18.268;2023-05-10T09:56:44;4.60;;;2.40;;
40170;SDS011;37650;52.790;18.268;2023-05-10T10:00:06;7.50;;;2.70;;
40170;SDS011;37650;52.790;18.268;2023-05-10T10:03:33;8.20;;;2.20;;
40170;SDS011;37650;52.790;18.268;2023-05-10T10:07:02;7.40;;;2.40;;
40170;SDS011;37650;52.790;18.268;2023-05-10T10:10:25;8.00;;;2.70;;
40170;SDS011;37650;52.790;18.268;2023-05-10T10:13:47;6.90;;;2.50;;
40170;SDS011;37650;52.790;18.268;2023-05-10T10:17:08;5.30;;;2.80;;
40170;SDS011;37650;52.790;18.268;2023-05-10T10:20:29;6.60;;;2.50;;
40170;SDS011;37650;52.790;18.268;2023-05-10T10:23:51;5.60;;;3.20;;
40170;SDS011;37650;52.790;18.268;2023-05-10T10:30:57;6.70;;;2.90;;
40170;SDS011;37650;52.790;18.268;2023-05-10T10:34:32;5.30;;;2.60;;
40170;SDS011;37650;52.790;18.268;2023-05-10T10:41:28;8.30;;;4.60;;
40170;SDS011;37650;52.790;18.268;2023-05-10T10:48:36;8.00;;;2.80;;
40170;SDS011;37650;52.790;18.268;2023-05-10T10:56:16;4.10;;;2.20;;
40170;SDS011;37650;52.790;18.268;2023-05-10T10:59:36;7.60;;;2.10;;
40170;SDS011;37650;52.790;18.268;2023-05-10T11:03:04;7.10;;;3.90;;
40170;SDS011;37650;52.790;18.268;2023-05-10T11:09:53;4.40;;;2.30;;
40170;SDS011;37650;52.790;18.268;2023-05-10T11:13:14;5.10;;;2.70;;
40170;SDS011;37650;52.790;18.268;2023-05-10T11:16:42;10.00;;;2.90;;
40170;SDS011;37650;52.790;18.268;2023-05-10T11:20:09;6.50;;;2.80;;
40170;SDS011;37650;52.790;18.268;2023-05-10T11:23:31;7.00;;;4.20;;
40170;SDS011;37650;52.790;18.268;2023-05-10T11:27:08;4.60;;;2.80;;
40170;SDS011;37650;52.790;18.268;2023-05-10T11:33:55;5.80;;;2.50;;
40170;SDS011;37650;52.790;18.268;2023-05-10T11:37:18;6.90;;;2.50;;
40170;SDS011;37650;52.790;18.268;2023-05-10T11:40:40;5.50;;;2.20;;
40170;SDS011;37650;52.790;18.268;2023-05-10T11:44:01;5.00;;;2.90;;
40170;SDS011;37650;52.790;18.268;2023-05-10T11:47:23;5.20;;;1.90;;
40170;SDS011;37650;52.790;18.268;2023-05-10T11:50:44;4.20;;;2.10;;
40170;SDS011;37650;52.790;18.268;2023-05-10T11:54:07;4.90;;;2.10;;
40170;SDS011;37650;52.790;18.268;2023-05-10T11:57:30;4.20;;;2.50;;
40170;SDS011;37650;52.790;18.268;2023-05-10T12:04:12;5.50;;;2.00;;
40170;SDS011;37650;52.790;18.268;2023-05-10T12:07:34;9.40;;;2.50;;
40170;SDS011;37650;52.790;18.268;2023-05-10T12:11:08;5.80;;;2.40;;
40170;SDS011;37650;52.790;18.268;2023-05-10T12:14:34;14.30;;;2.80;;
40170;SDS011;37650;52.790;18.268;2023-05-10T12:17:57;5.10;;;2.20;;
40170;SDS011;37650;52.790;18.268;2023-05-10T12:21:18;7.00;;;2.50;;
40170;SDS011;37650;52.790;18.268;2023-05-10T12:24:40;4.30;;;2.40;;
40170;SDS011;37650;52.790;18.268;2023-05-10T12:28:08;5.90;;;2.30;;
40170;SDS011;37650;52.790;18.268;2023-05-10T12:31:29;3.90;;;2.10;;
40170;SDS011;37650;52.790;18.268;2023-05-10T12:34:51;4.40;;;2.50;;
40170;SDS011;37650;52.790;18.268;2023-05-10T12:38:26;9.50;;;2.40;;
40170;SDS011;37650;52.790;18.268;2023-05-10T12:41:52;5.70;;;2.40;;
40170;SDS011;37650;52.790;18.268;2023-05-10T12:45:14;6.00;;;2.80;;
40170;SDS011;37650;52.790;18.268;2023-05-10T12:48:36;9.00;;;2.90;;
40170;SDS011;37650;52.790;18.268;2023-05-10T12:51:58;7.80;;;3.00;;
40170;SDS011;37650;52.790;18.268;2023-05-10T12:55:20;7.30;;;2.30;;
40170;SDS011;37650;52.790;18.268;2023-05-10T12:58:41;7.80;;;3.10;;
40170;SDS011;37650;52.790;18.268;2023-05-10T13:02:08;5.90;;;2.30;;
40170;SDS011;37650;52.790;18.268;2023-05-10T13:08:51;9.60;;;2.90;;
40170;SDS011;37650;52.790;18.268;2023-05-10T13:12:15;6.50;;;2.90;;
40170;SDS011;37650;52.790;18.268;2023-05-10T13:15:37;7.30;;;2.60;;
40170;SDS011;37650;52.790;18.268;2023-05-10T13:18:58;3.50;;;1.90;;
40170;SDS011;37650;52.790;18.268;2023-05-10T13:22:19;6.10;;;2.10;;
40170;SDS011;37650;52.790;18.268;2023-05-10T13:25:41;6.10;;;2.60;;
40170;SDS011;37650;52.790;18.268;2023-05-10T13:29:03;10.20;;;2.30;;
40170;SDS011;37650;52.790;18.268;2023-05-10T13:35:46;8.00;;;2.40;;
40170;SDS011;37650;52.790;18.268;2023-05-10T13:39:07;7.60;;;2.00;;
40170;SDS011;37650;52.790;18.268;2023-05-10T13:42:28;5.80;;;2.40;;
40170;SDS011;37650;52.790;18.268;2023-05-10T13:45:50;8.90;;;2.50;;
40170;SDS011;37650;52.790;18.268;2023-05-10T13:49:11;6.00;;;1.90;;
40170;SDS011;37650;52.790;18.268;2023-05-10T13:52:32;5.70;;;2.10;;
40170;SDS011;37650;52.790;18.268;2023-05-10T13:55:53;6.60;;;2.50;;
40170;SDS011;37650;52.790;18.268;2023-05-10T13:59:14;3.70;;;2.20;;
40170;SDS011;37650;52.790;18.268;2023-05-10T14:02:39;8.60;;;2.30;;
40170;SDS011;37650;52.790;18.268;2023-05-10T14:06:00;7.40;;;2.70;;
40170;SDS011;37650;52.790;18.268;2023-05-10T14:09:22;6.50;;;2.00;;
40170;SDS011;37650;52.790;18.268;2023-05-10T14:12:43;7.40;;;2.50;;
40170;SDS011;37650;52.790;18.268;2023-05-10T14:16:05;4.80;;;2.30;;
40170;SDS011;37650;52.790;18.268;2023-05-10T14:19:27;5.50;;;2.30;;
40170;SDS011;37650;52.790;18.268;2023-05-10T14:22:51;6.30;;;2.10;;
40170;SDS011;37650;52.790;18.268;2023-05-10T14:26:13;7.00;;;2.10;;
40170;SDS011;37650;52.790;18.268;2023-05-10T14:29:34;11.90;;;2.80;;
40170;SDS011;37650;52.790;18.268;2023-05-10T14:32:55;9.30;;;2.60;;
40170;SDS011;37650;52.790;18.268;2023-05-10T14:36:18;5.70;;;2.10;;
40170;SDS011;37650;52.790;18.268;2023-05-10T14:39:39;4.60;;;2.30;;
40170;SDS011;37650;52.790;18.268;2023-05-10T14:43:02;8.40;;;2.90;;
40170;SDS011;37650;52.790;18.268;2023-05-10T14:46:23;5.10;;;2.40;;
40170;SDS011;37650;52.790;18.268;2023-05-10T14:49:44;5.10;;;2.10;;
40170;SDS011;37650;52.790;18.268;2023-05-10T14:53:05;9.10;;;2.70;;
40170;SDS011;37650;52.790;18.268;2023-05-10T14:56:26;8.40;;;2.80;;
40170;SDS011;37650;52.790;18.268;2023-05-10T14:59:48;7.90;;;2.30;;
40170;SDS011;37650;52.790;18.268;2023-05-10T15:03:09;4.80;;;1.80;;
40170;SDS011;37650;52.790;18.268;2023-05-10T15:09:54;5.10;;;1.80;;
40170;SDS011;37650;52.790;18.268;2023-05-10T15:13:15;7.60;;;1.80;;
40170;SDS011;37650;52.790;18.268;2023-05-10T15:16:37;6.90;;;2.30;;
40170;SDS011;37650;52.790;18.268;2023-05-10T15:19:58;4.30;;;2.20;;
40170;SDS011;37650;52.790;18.268;2023-05-10T15:23:19;4.20;;;2.20;;
40170;SDS011;37650;52.790;18.268;2023-05-10T15:26:41;6.50;;;2.60;;
40170;SDS011;37650;52.790;18.268;2023-05-10T15:30:02;5.50;;;2.00;;
40170;SDS011;37650;52.790;18.268;2023-05-10T15:33:24;5.60;;;2.10;;
40170;SDS011;37650;52.790;18.268;2023-05-10T15:36:45;7.80;;;2.30;;
40170;SDS011;37650;52.790;18.268;2023-05-10T15:43:28;7.60;;;2.60;;
40170;SDS011;37650;52.790;18.268;2023-05-10T15:46:49;4.90;;;1.90;;
40170;SDS011;37650;52.790;18.268;2023-05-10T15:50:10;6.60;;;2.10;;
40170;SDS011;37650;52.790;18.268;2023-05-10T15:53:32;5.90;;;1.80;;
40170;SDS011;37650;52.790;18.268;2023-05-10T15:56:53;6.00;;;2.20;;
40170;SDS011;37650;52.790;18.268;2023-05-10T16:00:15;5.20;;;2.20;;
40170;SDS011;37650;52.790;18.268;2023-05-10T16:03:37;6.20;;;2.10;;
40170;SDS011;37650;52.790;18.268;2023-05-10T16:06:59;5.10;;;2.20;;
40170;SDS011;37650;52.790;18.268;2023-05-10T16:10:20;6.50;;;2.30;;
40170;SDS011;37650;52.790;18.268;2023-05-10T16:13:43;4.60;;;2.00;;
40170;SDS011;37650;52.790;18.268;2023-05-10T16:17:05;6.90;;;2.30;;
40170;SDS011;37650;52.790;18.268;2023-05-10T16:20:26;8.30;;;3.10;;
40170;SDS011;37650;52.790;18.268;2023-05-10T16:23:49;6.30;;;2.00;;
40170;SDS011;37650;52.790;18.268;2023-05-10T16:27:11;7.00;;;2.30;;
40170;SDS011;37650;52.790;18.268;2023-05-10T16:30:33;9.10;;;2.50;;
40170;SDS011;37650;52.790;18.268;2023-05-10T16:33:54;6.80;;;2.20;;
40170;SDS011;37650;52.790;18.268;2023-05-10T16:37:15;10.10;;;4.20;;
40170;SDS011;37650;52.790;18.268;2023-05-10T16:40:37;9.00;;;4.70;;
40170;SDS011;37650;52.790;18.268;2023-05-10T16:43:58;9.30;;;4.10;;
40170;SDS011;37650;52.790;18.268;2023-05-10T16:50:44;10.30;;;5.70;;
40170;SDS011;37650;52.790;18.268;2023-05-10T16:54:05;13.30;;;6.80;;
40170;SDS011;37650;52.790;18.268;2023-05-10T16:57:27;12.70;;;7.20;;
40170;SDS011;37650;52.790;18.268;2023-05-10T17:00:48;7.20;;;3.40;;
40170;SDS011;37650;52.790;18.268;2023-05-10T17:04:09;6.40;;;2.90;;
40170;SDS011;37650;52.790;18.268;2023-05-10T17:07:31;7.00;;;2.80;;
40170;SDS011;37650;52.790;18.268;2023-05-10T17:10:52;12.80;;;3.20;;
40170;SDS011;37650;52.790;18.268;2023-05-10T17:14:13;4.20;;;2.30;;
40170;SDS011;37650;52.790;18.268;2023-05-10T17:17:35;5.50;;;2.40;;
40170;SDS011;37650;52.790;18.268;2023-05-10T17:20:56;9.10;;;3.50;;
40170;SDS011;37650;52.790;18.268;2023-05-10T17:24:18;9.30;;;3.40;;
40170;SDS011;37650;52.790;18.268;2023-05-10T17:27:39;6.50;;;2.80;;
40170;SDS011;37650;52.790;18.268;2023-05-10T17:31:00;5.70;;;3.60;;
40170;SDS011;37650;52.790;18.268;2023-05-10T17:34:21;7.40;;;2.60;;
40170;SDS011;37650;52.790;18.268;2023-05-10T17:37:43;7.60;;;2.40;;
40170;SDS011;37650;52.790;18.268;2023-05-10T17:41:04;3.10;;;1.70;;
40170;SDS011;37650;52.790;18.268;2023-05-10T17:44:26;5.30;;;2.60;;
40170;SDS011;37650;52.790;18.268;2023-05-10T17:47:47;8.00;;;2.60;;
40170;SDS011;37650;52.790;18.268;2023-05-10T17:51:10;8.70;;;2.60;;
40170;SDS011;37650;52.790;18.268;2023-05-10T17:54:32;5.60;;;2.90;;
40170;SDS011;37650;52.790;18.268;2023-05-10T17:57:54;8.50;;;3.40;;
40170;SDS011;37650;52.790;18.268;2023-05-10T18:01:18;6.90;;;3.30;;
40170;SDS011;37650;52.790;18.268;2023-05-10T18:04:40;7.40;;;3.30;;
40170;SDS011;37650;52.790;18.268;2023-05-10T18:08:02;8.30;;;3.80;;
40170;SDS011;37650;52.790;18.268;2023-05-10T18:11:24;8.70;;;3.30;;
40170;SDS011;37650;52.790;18.268;2023-05-10T18:14:46;8.00;;;3.70;;
40170;SDS011;37650;52.790;18.268;2023-05-10T18:18:07;8.30;;;2.90;;
40170;SDS011;37650;52.790;18.268;2023-05-10T18:21:30;7.50;;;3.20;;
40170;SDS011;37650;52.790;18.268;2023-05-10T18:24:52;8.60;;;6.20;;
40170;SDS011;37650;52.790;18.268;2023-05-10T18:28:14;7.30;;;4.50;;
40170;SDS011;37650;52.790;18.268;2023-05-10T18:31:35;9.80;;;4.00;;
40170;SDS011;37650;52.790;18.268;2023-05-10T18:34:57;7.70;;;3.70;;
40170;SDS011;37650;52.790;18.268;2023-05-10T18:38:18;11.20;;;5.50;;
40170;SDS011;37650;52.790;18.268;2023-05-10T18:45:02;7.00;;;4.40;;
40170;SDS011;37650;52.790;18.268;2023-05-10T18:51:46;9.20;;;3.70;;
40170;SDS011;37650;52.790;18.268;2023-05-10T18:55:07;15.00;;;5.60;;
40170;SDS011;37650;52.790;18.268;2023-05-10T18:58:29;19.20;;;11.00;;
40170;SDS011;37650;52.790;18.268;2023-05-10T19:01:51;21.40;;;15.40;;
40170;SDS011;37650;52.790;18.268;2023-05-10T19:05:13;32.40;;;21.80;;
40170;SDS011;37650;52.790;18.268;2023-05-10T19:11:57;21.40;;;16.60;;
40170;SDS011;37650;52.790;18.268;2023-05-10T19:15:19;8.60;;;5.40;;
40170;SDS011;37650;52.790;18.268;2023-05-10T19:18:44;10.20;;;5.00;;
40170;SDS011;37650;52.790;18.268;2023-05-10T19:22:08;10.20;;;4.60;;
40170;SDS011;37650;52.790;18.268;2023-05-10T19:25:30;10.70;;;5.60;;
40170;SDS011;37650;52.790;18.268;2023-05-10T19:28:54;9.90;;;5.80;;
40170;SDS011;37650;52.790;18.268;2023-05-10T19:32:18;25.00;;;22.40;;
40170;SDS011;37650;52.790;18.268;2023-05-10T19:35:40;11.60;;;10.20;;
40170;SDS011;37650;52.790;18.268;2023-05-10T19:39:01;13.10;;;11.70;;
40170;SDS011;37650;52.790;18.268;2023-05-10T19:45:45;39.10;;;33.90;;
40170;SDS011;37650;52.790;18.268;2023-05-10T19:49:09;30.00;;;25.00;;
40170;SDS011;37650;52.790;18.268;2023-05-10T19:52:30;13.40;;;9.10;;
40170;SDS011;37650;52.790;18.268;2023-05-10T19:55:53;48.00;;;32.30;;
40170;SDS011;37650;52.790;18.268;2023-05-10T19:59:17;32.40;;;22.50;;
40170;SDS011;37650;52.790;18.268;2023-05-10T20:02:40;22.70;;;17.00;;
40170;SDS011;37650;52.790;18.268;2023-05-10T20:06:03;36.60;;;24.90;;
40170;SDS011;37650;52.790;18.268;2023-05-10T20:09:25;20.50;;;14.40;;
40170;SDS011;37650;52.790;18.268;2023-05-10T20:12:48;59.90;;;43.70;;
40170;SDS011;37650;52.790;18.268;2023-05-10T20:16:12;42.40;;;33.70;;
40170;SDS011;37650;52.790;18.268;2023-05-10T20:19:34;9.20;;;6.60;;
40170;SDS011;37650;52.790;18.268;2023-05-10T20:22:56;25.80;;;22.20;;
40170;SDS011;37650;52.790;18.268;2023-05-10T20:26:17;11.50;;;8.20;;
40170;SDS011;37650;52.790;18.268;2023-05-10T20:29:39;7.80;;;6.50;;
40170;SDS011;37650;52.790;18.268;2023-05-10T20:33:00;8.80;;;6.50;;
40170;SDS011;37650;52.790;18.268;2023-05-10T20:36:24;12.80;;;10.30;;
40170;SDS011;37650;52.790;18.268;2023-05-10T20:39:46;29.80;;;25.90;;
40170;SDS011;37650;52.790;18.268;2023-05-10T20:46:30;21.60;;;19.30;;
40170;SDS011;37650;52.790;18.268;2023-05-10T20:49:52;11.40;;;7.70;;
40170;SDS011;37650;52.790;18.268;2023-05-10T20:53:13;10.50;;;5.20;;
40170;SDS011;37650;52.790;18.268;2023-05-10T20:56:35;11.90;;;6.40;;
40170;SDS011;37650;52.790;18.268;2023-05-10T20:59:56;7.70;;;3.90;;
40170;SDS011;37650;52.790;18.268;2023-05-10T21:03:18;8.60;;;4.80;;
40170;SDS011;37650;52.790;18.268;2023-05-10T21:06:40;6.90;;;4.00;;
40170;SDS011;37650;52.790;18.268;2023-05-10T21:10:05;9.30;;;7.50;;
40170;SDS011;37650;52.790;18.268;2023-05-10T21:13:28;9.00;;;6.30;;
40170;SDS011;37650;52.790;18.268;2023-05-10T21:16:49;9.10;;;4.10;;
40170;SDS011;37650;52.790;18.268;2023-05-10T21:20:11;8.80;;;5.90;;